Alfonso, Virginia
Current Conditions -  °F | °C
As of 12:35 PM on Monday 22 Dec 2014 (Local Time) from KW75 Reporting Station
Overcast Overcast  
Wind Chill:   Ceiling: 700
Heat Index:   Visibility: 4mi
Dew Point:   Wind: 7mph
Humidity: 93%   Direction: 30°NNE
Pressure: 30.16"   Gusts: NA
Location:  37.7649°N, 76.5055°W
Report Text: KW75 221735Z AUTO 03006KT 4SM BKN007 BKN015 OVC027 04/03 A3016 RMK AO1 P0001 T00420032
Loading
Personal Weather Stations






























Interactive Weather Map New forecast layout! Learn more

10-Day Weather Forecast

Advertisements
Track Severe Weather on mobile